createdAt,value
2023-02-13T00:01:10.948Z,62.30
2023-02-13T00:03:39.200Z,63.60
2023-02-13T00:06:07.897Z,65.30
2023-02-13T00:08:36.784Z,67.60
2023-02-13T00:11:04.918Z,68.70
2023-02-13T00:13:34.232Z,68.80
2023-02-13T00:16:05.796Z,66.70
2023-02-13T00:18:36.708Z,66.00
2023-02-13T00:21:06.690Z,66.10
2023-02-13T00:23:36.255Z,67.10
2023-02-13T00:26:08.050Z,66.90
2023-02-13T00:28:36.318Z,65.70
2023-02-13T00:31:08.830Z,66.40
2023-02-13T00:33:37.381Z,66.10
2023-02-13T00:36:07.647Z,66.70
2023-02-13T00:38:35.839Z,65.80
2023-02-13T00:41:04.279Z,64.80
2023-02-13T00:43:32.433Z,63.90
2023-02-13T00:46:00.726Z,63.70
2023-02-13T00:48:31.619Z,64.00
2023-02-13T00:51:00.364Z,65.20
2023-02-13T00:53:30.993Z,66.40
2023-02-13T00:55:59.365Z,67.30
2023-02-13T00:58:27.489Z,67.80
2023-02-13T01:00:56.630Z,69.50
2023-02-13T01:03:26.639Z,69.00
2023-02-13T01:05:58.114Z,67.10
2023-02-13T01:08:28.390Z,66.20
2023-02-13T01:10:56.971Z,65.20
2023-02-13T01:13:25.760Z,64.20
2023-02-13T01:15:55.289Z,63.70
2023-02-13T01:18:23.791Z,63.30
2023-02-13T01:21:00.793Z,63.20
2023-02-13T01:23:32.195Z,63.30
2023-02-13T01:26:00.492Z,63.90
2023-02-13T01:28:28.951Z,63.40
2023-02-13T01:30:58.950Z,62.90
2023-02-13T01:33:31.571Z,63.70
2023-02-13T01:36:01.067Z,64.60
2023-02-13T01:38:29.297Z,65.70
2023-02-13T01:40:57.599Z,65.70
2023-02-13T01:43:26.180Z,66.10
2023-02-13T01:45:57.620Z,65.90
2023-02-13T01:48:29.025Z,66.60
2023-02-13T01:51:03.906Z,66.40
2023-02-13T01:53:36.847Z,65.70
2023-02-13T01:56:10.134Z,65.00
2023-02-13T01:58:40.933Z,64.50
2023-02-13T02:01:10.758Z,64.00
2023-02-13T02:03:42.781Z,63.50
2023-02-13T02:06:17.581Z,63.50
2023-02-13T02:08:48.533Z,63.30
2023-02-13T02:11:28.010Z,64.50
2023-02-13T02:13:57.122Z,64.30
2023-02-13T02:16:33.797Z,64.20
2023-02-13T02:19:11.678Z,63.80
2023-02-13T02:22:18.410Z,64.00
2023-02-13T02:25:19.397Z,64.40
2023-02-13T02:28:18.718Z,64.40
2023-02-13T02:31:26.587Z,64.20
2023-02-13T02:34:08.697Z,64.20
2023-02-13T02:36:53.712Z,65.20
2023-02-13T02:39:31.822Z,65.00
2023-02-13T02:42:11.388Z,63.90
2023-02-13T02:44:46.062Z,63.40
2023-02-13T02:47:39.512Z,63.40
2023-02-13T02:50:30.739Z,63.00
2023-02-13T02:53:08.873Z,63.10
2023-02-13T02:55:44.631Z,63.50
2023-02-13T02:58:39.455Z,63.40
2023-02-13T03:01:30.921Z,63.30
2023-02-13T03:04:19.032Z,63.20
2023-02-13T03:06:52.874Z,63.50
2023-02-13T03:09:42.343Z,64.60
2023-02-13T03:12:30.131Z,65.60
2023-02-13T03:14:58.252Z,64.80
2023-02-13T03:17:43.631Z,64.50
2023-02-13T03:20:53.072Z,65.20
2023-02-13T03:23:34.930Z,65.20
2023-02-13T03:26:33.166Z,65.10
2023-02-13T03:29:30.112Z,64.00
2023-02-13T03:32:05.939Z,63.70
2023-02-13T03:34:52.108Z,63.70
2023-02-13T03:37:45.546Z,64.30
2023-02-13T03:40:19.277Z,63.50
2023-02-13T03:42:53.688Z,63.90
2023-02-13T03:45:43.801Z,63.90
2023-02-13T03:48:49.241Z,63.50
2023-02-13T03:51:23.521Z,63.70
2023-02-13T03:53:55.792Z,64.00
2023-02-13T03:56:45.779Z,63.90
2023-02-13T03:59:22.624Z,64.00
2023-02-13T04:02:00.904Z,64.20
2023-02-13T04:04:36.885Z,64.10
2023-02-13T04:07:08.356Z,64.20
2023-02-13T04:09:40.298Z,64.50
2023-02-13T04:12:15.500Z,64.50
2023-02-13T04:14:51.116Z,65.10
2023-02-13T04:17:22.881Z,64.80
2023-02-13T04:19:51.185Z,64.40
2023-02-13T04:22:20.561Z,64.50
2023-02-13T04:24:48.930Z,65.20
2023-02-13T04:27:19.281Z,64.70
2023-02-13T04:29:47.368Z,65.50
2023-02-13T04:32:17.173Z,65.10
2023-02-13T04:34:45.263Z,65.10
2023-02-13T04:37:13.341Z,64.80
2023-02-13T04:39:41.474Z,63.90
2023-02-13T04:42:09.527Z,64.00
2023-02-13T04:44:39.017Z,63.80
2023-02-13T04:47:07.093Z,64.50
2023-02-13T04:49:35.239Z,64.00
2023-02-13T04:52:03.336Z,63.60
2023-02-13T04:54:31.409Z,63.40
2023-02-13T04:56:59.511Z,63.60
2023-02-13T04:59:27.711Z,63.50
2023-02-13T05:01:59.147Z,63.40
2023-02-13T05:04:27.374Z,63.50
2023-02-13T05:06:55.483Z,63.70
2023-02-13T05:09:23.578Z,64.10
2023-02-13T05:11:53.294Z,64.30
2023-02-13T05:14:21.778Z,64.50
2023-02-13T05:16:50.377Z,64.40
2023-02-13T05:19:19.923Z,64.60
2023-02-13T05:22:05.981Z,64.70
2023-02-13T05:24:34.119Z,64.40
2023-02-13T05:27:02.248Z,64.20
2023-02-13T05:29:30.341Z,64.00
2023-02-13T05:31:59.780Z,63.90
2023-02-13T05:34:30.281Z,63.60
2023-02-13T05:36:58.590Z,64.80
2023-02-13T05:39:26.929Z,64.70
2023-02-13T05:41:55.046Z,64.90
2023-02-13T05:44:23.188Z,65.00
2023-02-13T05:46:53.258Z,64.80
2023-02-13T05:49:22.902Z,64.80
2023-02-13T05:51:53.157Z,65.00
2023-02-13T05:54:21.237Z,64.90
2023-02-13T05:56:49.453Z,65.10
2023-02-13T05:59:17.642Z,65.40
2023-02-13T06:01:45.730Z,65.90
2023-02-13T06:04:13.847Z,66.60
2023-02-13T06:06:41.953Z,66.20
2023-02-13T06:09:11.546Z,67.50
2023-02-13T06:11:39.657Z,68.60
2023-02-13T06:14:07.737Z,68.60
2023-02-13T06:16:35.948Z,68.60
2023-02-13T06:19:04.091Z,68.40
2023-02-13T06:21:33.360Z,69.00
2023-02-13T06:24:01.462Z,69.90
2023-02-13T06:26:30.990Z,70.10
2023-02-13T06:28:59.114Z,70.50
2023-02-13T06:31:27.340Z,70.50
2023-02-13T06:33:55.487Z,71.30
2023-02-13T06:36:23.626Z,70.90
2023-02-13T06:38:51.770Z,70.50
2023-02-13T06:41:19.918Z,71.00
2023-02-13T06:43:49.657Z,71.30
2023-02-13T06:46:17.819Z,72.50
2023-02-13T06:48:45.926Z,72.60
2023-02-13T06:51:14.006Z,72.20
2023-02-13T06:53:42.147Z,72.40
2023-02-13T06:56:11.204Z,72.60
2023-02-13T06:58:40.137Z,72.80
2023-02-13T07:01:09.696Z,73.00
2023-02-13T07:03:37.918Z,73.50
2023-02-13T07:06:06.298Z,74.40
2023-02-13T07:08:34.465Z,74.80
2023-02-13T07:11:02.575Z,75.10
2023-02-13T07:13:30.728Z,75.40
2023-02-13T07:16:02.194Z,75.80
2023-02-13T07:18:31.705Z,76.60
2023-02-13T07:21:00.001Z,76.60
2023-02-13T07:23:28.174Z,76.60
2023-02-13T07:25:56.356Z,76.60
2023-02-13T07:28:24.558Z,76.80
2023-02-13T07:30:52.844Z,77.20
2023-02-13T07:33:24.923Z,77.90
2023-02-13T07:35:54.397Z,78.70
2023-02-13T07:38:22.527Z,79.50
2023-02-13T07:40:50.909Z,79.80
2023-02-13T07:43:19.103Z,80.40
2023-02-13T07:45:47.870Z,80.90
2023-02-13T07:48:15.976Z,81.30
2023-02-13T07:50:44.106Z,81.70
2023-02-13T07:53:13.578Z,81.90
2023-02-13T07:55:41.741Z,82.40
2023-02-13T07:58:09.936Z,82.50
2023-02-13T08:00:38.094Z,82.40
2023-02-13T08:03:06.338Z,82.60
2023-02-13T08:05:35.603Z,83.10
2023-02-13T08:08:04.104Z,84.20
2023-02-13T08:10:51.238Z,83.90
2023-02-13T08:13:19.635Z,83.90
2023-02-13T08:15:48.169Z,84.20
2023-02-13T08:18:18.851Z,84.00
2023-02-13T08:20:48.546Z,84.00
2023-02-13T08:23:16.865Z,84.40
2023-02-13T08:25:47.747Z,84.50
2023-02-13T08:28:15.949Z,84.80
2023-02-13T08:30:44.185Z,84.80
2023-02-13T08:33:12.319Z,85.10
2023-02-13T08:35:40.427Z,86.30
2023-02-13T08:38:08.545Z,86.20
2023-02-13T08:40:36.698Z,86.40
2023-02-13T08:43:07.346Z,86.20
2023-02-13T08:45:36.558Z,87.00
2023-02-13T08:48:05.127Z,86.70
2023-02-13T08:50:34.625Z,86.30
2023-02-13T08:53:03.760Z,86.40
2023-02-13T08:55:32.248Z,86.30
2023-02-13T08:58:02.117Z,86.40
2023-02-13T09:00:31.926Z,86.40
2023-02-13T09:03:02.362Z,86.30
2023-02-13T09:05:32.630Z,86.50
2023-02-13T09:08:02.744Z,86.10
2023-02-13T09:10:31.513Z,85.80
2023-02-13T09:13:01.234Z,87.40
2023-02-13T09:15:29.407Z,87.00
2023-02-13T09:17:59.182Z,91.30
2023-02-13T09:20:27.753Z,93.90
2023-02-13T09:22:57.513Z,94.90
2023-02-13T09:25:25.733Z,97.70
2023-02-13T09:27:53.874Z,97.10
2023-02-13T09:30:24.366Z,97.50
2023-02-13T09:32:53.364Z,98.10
2023-02-13T09:35:24.219Z,98.20
2023-02-13T09:37:52.336Z,95.60
2023-02-13T09:57:35.702Z,99.90
2023-02-13T10:00:13.414Z,99.90
2023-02-13T10:02:56.060Z,99.90
2023-02-13T10:05:38.407Z,99.90
2023-02-13T10:08:17.249Z,99.90
2023-02-13T10:10:53.096Z,99.90
2023-02-13T10:13:32.235Z,99.90
2023-02-13T10:16:09.455Z,99.90
2023-02-13T10:18:46.164Z,99.90
2023-02-13T10:21:15.747Z,99.90
2023-02-13T10:23:47.342Z,99.90
2023-02-13T10:26:21.314Z,99.90
2023-02-13T10:29:13.885Z,99.90
2023-02-13T10:31:45.727Z,99.90
2023-02-13T10:34:17.223Z,99.90
2023-02-13T10:36:47.189Z,99.90
2023-02-13T10:39:24.751Z,99.90
2023-02-13T10:41:57.758Z,99.90
2023-02-13T10:44:40.340Z,99.90
2023-02-13T10:47:25.844Z,99.90
2023-02-13T10:50:04.356Z,99.90
2023-02-13T10:52:45.446Z,99.90
2023-02-13T10:55:30.264Z,99.90
2023-02-13T10:58:09.420Z,99.90
2023-02-13T11:00:43.296Z,99.90
2023-02-13T11:03:19.973Z,99.90
2023-02-13T11:05:48.347Z,99.90
2023-02-13T11:08:22.243Z,99.90
2023-02-13T11:10:50.780Z,99.90
2023-02-13T11:13:21.243Z,99.90
2023-02-13T11:16:01.985Z,99.90
2023-02-13T11:18:34.335Z,99.90
2023-02-13T11:21:08.867Z,99.90
2023-02-13T11:23:41.621Z,99.90
2023-02-13T11:26:12.563Z,99.90
2023-02-13T11:28:48.057Z,99.90
2023-02-13T11:31:25.357Z,99.90
2023-02-13T11:33:58.585Z,99.90
2023-02-13T11:36:29.373Z,99.90
2023-02-13T11:39:02.936Z,99.90
2023-02-13T11:41:33.097Z,99.90
2023-02-13T11:44:04.175Z,99.90
2023-02-13T11:46:46.058Z,99.90
2023-02-13T11:49:20.945Z,99.90
2023-02-13T11:51:50.678Z,99.90
2023-02-13T11:54:31.651Z,99.90
2023-02-13T11:57:04.891Z,99.90
2023-02-13T11:59:40.995Z,99.90
2023-02-13T12:02:18.731Z,99.90
2023-02-13T12:04:49.964Z,99.90
2023-02-13T12:07:22.413Z,99.90
2023-02-13T12:09:55.257Z,99.90
2023-02-13T12:12:29.949Z,99.90
2023-02-13T12:14:59.364Z,99.90
2023-02-13T12:17:32.535Z,99.90
2023-02-13T12:20:02.351Z,99.90
2023-02-13T12:22:42.958Z,99.90
2023-02-13T12:25:35.725Z,99.90
2023-02-13T12:28:15.865Z,99.90
2023-02-13T12:31:22.095Z,99.90
2023-02-13T12:34:18.739Z,99.90
2023-02-13T12:37:01.433Z,99.90
2023-02-13T12:39:34.921Z,99.90
2023-02-13T12:42:23.153Z,99.90
2023-02-13T12:45:05.657Z,99.90
2023-02-13T12:47:41.097Z,99.90
2023-02-13T12:50:41.009Z,99.90
2023-02-13T12:53:35.602Z,99.90
2023-02-13T12:56:31.930Z,99.90
2023-02-13T12:59:09.305Z,99.90
2023-02-13T13:01:55.807Z,99.90
2023-02-13T13:04:31.009Z,99.90
2023-02-13T13:07:18.846Z,99.90
2023-02-13T13:10:01.864Z,99.90
2023-02-13T13:12:42.303Z,99.90
2023-02-13T13:15:18.325Z,99.90
2023-02-13T13:17:59.242Z,99.90
2023-02-13T13:20:57.883Z,99.90
2023-02-13T13:23:32.500Z,99.90
2023-02-13T13:26:15.509Z,99.90
2023-02-13T13:28:47.080Z,99.90
2023-02-13T13:31:16.618Z,99.90
2023-02-13T13:33:48.252Z,99.90
2023-02-13T13:36:25.325Z,99.90
2023-02-13T13:39:01.857Z,99.90
2023-02-13T13:41:42.649Z,99.90
2023-02-13T13:45:02.150Z,99.90
2023-02-13T13:47:47.083Z,99.90
2023-02-13T13:50:22.355Z,99.90
2023-02-13T13:53:10.869Z,99.90
2023-02-13T13:56:02.869Z,99.90
2023-02-13T13:58:41.460Z,99.90
2023-02-13T14:01:29.485Z,99.90
2023-02-13T14:03:59.391Z,99.90
2023-02-13T14:06:29.554Z,99.90
2023-02-13T14:09:03.999Z,99.90
2023-02-13T14:11:35.812Z,99.90
2023-02-13T14:14:53.083Z,99.90
2023-02-13T14:18:01.261Z,99.90
2023-02-13T14:20:36.937Z,99.90
2023-02-13T14:23:49.645Z,99.90
2023-02-13T14:26:31.172Z,99.90
2023-02-13T14:29:30.895Z,99.90
2023-02-13T14:32:03.346Z,99.90
2023-02-13T14:34:33.920Z,99.90
2023-02-13T14:37:21.020Z,99.90
2023-02-13T14:40:25.211Z,99.90
2023-02-13T14:42:57.457Z,99.90
2023-02-13T14:45:32.298Z,99.90
2023-02-13T14:48:07.407Z,99.90
2023-02-13T14:50:46.550Z,99.90
2023-02-13T14:53:24.661Z,99.90
2023-02-13T14:55:59.657Z,99.90
2023-02-13T14:58:32.463Z,99.90
2023-02-13T15:01:05.959Z,99.90
2023-02-13T15:03:42.055Z,99.90
2023-02-13T15:06:17.615Z,99.90
2023-02-13T15:08:49.690Z,99.90
2023-02-13T15:11:39.070Z,99.90
2023-02-13T15:14:18.361Z,99.90
2023-02-13T15:16:51.541Z,99.90
2023-02-13T15:19:21.493Z,99.90
2023-02-13T15:21:55.942Z,99.90
2023-02-13T15:24:25.612Z,99.90
2023-02-13T15:27:02.084Z,99.90
2023-02-13T15:29:47.666Z,99.90
2023-02-13T15:32:27.238Z,99.90
2023-02-13T15:34:55.304Z,99.90
2023-02-13T15:37:25.139Z,99.90
2023-02-13T15:39:53.250Z,99.90
2023-02-13T15:42:21.873Z,99.90
2023-02-13T15:44:55.202Z,99.90
2023-02-13T15:47:29.356Z,99.90
2023-02-13T15:49:57.774Z,99.90
2023-02-13T15:52:32.373Z,99.90
2023-02-13T15:55:00.557Z,99.90
2023-02-13T15:57:30.217Z,99.90
2023-02-13T15:59:59.709Z,99.90
2023-02-13T16:02:36.154Z,99.90
2023-02-13T16:05:04.532Z,99.90
2023-02-13T16:07:47.864Z,99.90
2023-02-13T16:10:16.783Z,99.90
2023-02-13T16:12:48.164Z,99.90
2023-02-13T16:15:19.343Z,99.90
2023-02-13T16:17:49.951Z,99.90
2023-02-13T16:20:22.209Z,99.90
2023-02-13T16:22:53.492Z,99.90
2023-02-13T16:25:26.117Z,99.90
2023-02-13T16:27:57.642Z,99.90
2023-02-13T16:30:33.827Z,99.90
2023-02-13T16:33:22.691Z,99.90
2023-02-13T16:35:52.537Z,99.90
2023-02-13T16:38:30.904Z,99.90
2023-02-13T16:41:00.695Z,99.90
2023-02-13T16:43:46.496Z,99.90
2023-02-13T16:46:25.222Z,99.90
2023-02-13T16:49:21.462Z,99.90
2023-02-13T16:51:52.840Z,99.90
2023-02-13T16:54:33.246Z,99.90
2023-02-13T16:57:04.565Z,99.90
2023-02-13T16:59:59.726Z,99.90
2023-02-13T17:02:28.653Z,99.90
2023-02-13T17:05:03.198Z,99.90
2023-02-13T17:07:34.867Z,99.90
2023-02-13T17:10:06.061Z,99.90
2023-02-13T17:12:38.500Z,99.90
2023-02-13T17:15:13.035Z,99.90
2023-02-13T17:17:41.462Z,98.50
2023-02-13T17:20:17.667Z,96.80
2023-02-13T17:22:47.925Z,94.60
2023-02-13T17:25:21.957Z,94.20
2023-02-13T17:27:50.748Z,95.00
2023-02-13T17:30:20.783Z,95.60
2023-02-13T17:32:51.171Z,97.00
2023-02-13T17:35:20.755Z,99.90
2023-02-13T17:37:48.938Z,99.90
2023-02-13T17:40:18.029Z,98.90
2023-02-13T17:42:47.746Z,96.60
2023-02-13T17:45:18.528Z,94.70
2023-02-13T17:47:46.957Z,93.50
2023-02-13T17:50:17.318Z,92.60
2023-02-13T17:52:49.072Z,92.00
2023-02-13T17:55:21.080Z,93.30
2023-02-13T17:57:49.499Z,92.70
2023-02-13T18:00:18.524Z,94.50
2023-02-13T18:02:47.934Z,95.30
2023-02-13T18:05:16.888Z,94.50
2023-02-13T18:07:47.332Z,92.90
2023-02-13T18:10:17.902Z,91.60
2023-02-13T18:12:47.414Z,91.30
2023-02-13T18:15:16.354Z,90.50
2023-02-13T18:17:44.854Z,91.00
2023-02-13T18:20:14.727Z,90.40
2023-02-13T18:22:43.058Z,90.10
2023-02-13T18:25:13.141Z,89.90
2023-02-13T18:27:41.629Z,89.80
2023-02-13T18:30:12.520Z,90.00
2023-02-13T18:32:40.712Z,89.50
2023-02-13T18:35:09.427Z,89.20
2023-02-13T18:37:39.173Z,89.20
2023-02-13T18:40:08.781Z,90.20
2023-02-13T18:42:38.957Z,90.10
2023-02-13T18:45:07.931Z,90.70
2023-02-13T18:47:36.070Z,91.40
2023-02-13T18:50:04.749Z,92.40
2023-02-13T18:52:32.846Z,94.40
2023-02-13T18:55:00.911Z,94.50
2023-02-13T18:57:29.257Z,93.80
2023-02-13T18:59:58.856Z,92.60
2023-02-13T19:02:27.048Z,92.00
2023-02-13T19:04:55.159Z,91.60
2023-02-13T19:07:23.473Z,91.10
2023-02-13T19:09:51.588Z,91.80
2023-02-13T19:12:19.787Z,91.30
2023-02-13T19:14:48.137Z,90.90
2023-02-13T19:17:17.828Z,90.50
2023-02-13T19:19:46.382Z,90.80
2023-02-13T19:22:14.553Z,91.20
2023-02-13T19:24:42.657Z,91.40
2023-02-13T19:27:11.350Z,90.90
2023-02-13T19:29:39.488Z,90.90
2023-02-13T19:32:07.703Z,91.60
2023-02-13T19:34:37.241Z,91.20
2023-02-13T19:37:05.361Z,91.30
2023-02-13T19:39:33.530Z,91.90
2023-02-13T19:42:01.605Z,92.60
2023-02-13T19:44:29.767Z,92.30
2023-02-13T19:46:57.902Z,92.40
2023-02-13T19:49:26.049Z,92.50
2023-02-13T19:51:55.525Z,91.90
2023-02-13T19:54:23.712Z,93.30
2023-02-13T19:56:54.626Z,93.20
2023-02-13T19:59:22.765Z,92.90
2023-02-13T20:01:50.926Z,92.70
2023-02-13T20:04:19.057Z,92.70
2023-02-13T20:06:47.132Z,92.80
2023-02-13T20:09:16.664Z,91.90
2023-02-13T20:11:45.436Z,90.90
2023-02-13T20:14:15.438Z,90.90
2023-02-13T20:16:45.656Z,91.70
2023-02-13T20:19:14.228Z,92.50
2023-02-13T20:21:43.454Z,94.30
2023-02-13T20:24:13.032Z,94.60
2023-02-13T20:26:42.876Z,94.60
2023-02-13T20:29:11.023Z,94.40
2023-02-13T20:31:41.353Z,94.90
2023-02-13T20:34:09.981Z,94.80
2023-02-13T20:36:38.115Z,94.20
2023-02-13T20:39:07.797Z,93.60
2023-02-13T20:41:37.990Z,92.40
2023-02-13T20:44:09.435Z,91.20
2023-02-13T20:46:39.755Z,91.20
2023-02-13T20:49:08.951Z,91.60
2023-02-13T20:51:37.548Z,90.30
2023-02-13T20:54:06.499Z,89.90
2023-02-13T20:56:34.602Z,89.50
2023-02-13T20:59:03.349Z,89.90
2023-02-13T21:01:34.993Z,89.40
2023-02-13T21:04:03.443Z,89.30
2023-02-13T21:06:33.395Z,89.40
2023-02-13T21:09:02.608Z,89.30
2023-02-13T21:11:34.342Z,89.20
2023-02-13T21:14:03.381Z,89.40
2023-02-13T21:16:34.620Z,89.20
2023-02-13T21:19:05.615Z,89.10
2023-02-13T21:21:35.354Z,88.70
2023-02-13T21:24:08.387Z,88.60
2023-02-13T21:26:37.590Z,88.40
2023-02-13T21:29:06.894Z,88.10
2023-02-13T21:31:38.310Z,88.50
2023-02-13T21:34:09.134Z,88.30
2023-02-13T21:36:38.333Z,88.00
2023-02-13T21:39:09.074Z,88.00
2023-02-13T21:41:38.179Z,88.30
2023-02-13T21:44:07.091Z,88.40
2023-02-13T21:46:37.395Z,88.50
2023-02-13T21:49:07.761Z,89.40
2023-02-13T21:51:37.768Z,89.20
2023-02-13T21:54:06.743Z,90.30
2023-02-13T21:56:37.117Z,91.20
2023-02-13T21:59:06.301Z,90.80
2023-02-13T22:01:47.509Z,90.00
2023-02-13T22:04:15.966Z,90.40
2023-02-13T22:06:44.861Z,91.10
2023-02-13T22:09:15.437Z,91.30
2023-02-13T22:11:44.305Z,90.80
2023-02-13T22:14:15.900Z,89.70
2023-02-13T22:16:46.703Z,89.40
2023-02-13T22:19:16.910Z,91.00
2023-02-13T22:21:46.292Z,91.30
2023-02-13T22:24:14.966Z,91.60
2023-02-13T22:26:45.303Z,92.10
2023-02-13T22:29:15.969Z,92.40
2023-02-13T22:31:46.467Z,90.40
2023-02-13T22:34:15.842Z,89.60
2023-02-13T22:36:44.165Z,88.30
2023-02-13T22:39:12.813Z,87.70
2023-02-13T22:41:41.101Z,88.20
2023-02-13T22:44:09.303Z,87.90
2023-02-13T22:46:37.576Z,87.70
2023-02-13T22:49:07.245Z,87.30
2023-02-13T22:51:37.633Z,87.30
2023-02-13T22:54:06.925Z,87.10
2023-02-13T22:56:35.152Z,87.50
2023-02-13T22:59:03.612Z,87.60
2023-02-13T23:01:31.704Z,87.30
2023-02-13T23:04:00.108Z,87.60
2023-02-13T23:06:29.771Z,88.10
2023-02-13T23:08:58.673Z,89.10
2023-02-13T23:11:46.279Z,89.70
2023-02-13T23:14:14.971Z,88.70
2023-02-13T23:17:01.545Z,87.40
2023-02-13T23:19:30.270Z,88.10
2023-02-13T23:22:00.172Z,88.20
2023-02-13T23:24:28.770Z,89.60
2023-02-13T23:26:56.906Z,88.40
2023-02-13T23:29:25.062Z,87.60
2023-02-13T23:31:53.453Z,88.10
2023-02-13T23:34:21.655Z,87.50
2023-02-13T23:36:50.045Z,86.80
2023-02-13T23:39:19.903Z,86.90
2023-02-13T23:41:48.015Z,86.60
2023-02-13T23:44:16.142Z,86.60
2023-02-13T23:46:44.365Z,86.50
2023-02-13T23:49:12.498Z,85.70
2023-02-13T23:51:40.648Z,85.70
2023-02-13T23:54:08.829Z,85.30
2023-02-13T23:56:38.330Z,85.50
2023-02-13T23:59:06.486Z,85.70
